Matagorda, TX

11:50 PM CDT on August 21, 2014 (GMT -0500)
Bay City | Change Station
CLOSE
Current Station
Airport
Location: Bay City,
Elevation: 46 ft
Nearby Weather Stations
Active Advisory: Heat Advisory

Elev 46 ft 28.97 °N, 95.86 °W | Updated 15 minutes ago

Clear
Clear
82 °F
Feels Like 92 °F
N
6
Wind Variable Wind from SSE

Today
High -- | Low -- °F
--% Chance of Precip.
Yesterday
High -- | Low -- °F
Precip. -- in
6:56 AM 7:57 PM
Waning Crescent, 10% visible
Pressure 30.07 in
Visibility 10.0 miles
Clouds Clear
Heat Index 92 °F
Dew Point 80 °F
Humidity 95%
Rainfall 0.00 in
Snow Depth Not available.
UV 0 out of 12
Pollen 6.70 out of 12
Air Quality Not available.
Flu Activity Not available.
METAR KBYY 220435Z AUTO 15005KT 10SM CLR 27/27 A3007 RMK AO2 T02760268

More Conditions Fewer Conditions

Pressure 30.07 in
Visibility 10.0 miles
Clouds Clear
Heat Index 92 °F
Dew Point 80 °F
Humidity 95%
Rainfall 0.00 in
Snow Depth Not available.
UV 0 out of 12
Pollen 6.70 out of 12
Air Quality Not available.
Flu Activity Not available.
METAR KBYY 220435Z AUTO 15005KT 10SM CLR 27/27 A3007 RMK AO2 T02760268

More Conditions Fewer Conditions

10-Day Weather Forecast

Almanac

Astronomy

Aug. 21, 2014 Rise Set
Actual Time 6:56 AM CDT 7:57 PM CDT
Civil Twilight 6:31 AM CDT 8:21 PM CDT
Nautical Twilight 6:02 AM CDT 8:50 PM CDT
Astronomical Twilight 5:33 AM CDT 9:20 PM CDT
Moon 3:35 AM CDT (8/21) 5:19 PM CDT (8/21)
Length of Visible Light 13h 49m
Length of Day
13h 00m
Tomorrow will be 1m 34s shorter.
Waning Crescent, 10% of the Moon is Illuminated
Aug 22
Waning Crescent
Aug 25
New
Sep 2
First Quarter
Sep 8
Full
Sep 15
Last Quarter

Yesterday's Extremes

State Highs State Lows

Community

WunderPhotos

Upload Photos

1,746,130 photos uploaded!

Nearby

Snow Depth

Station Depth Elevation
No new snow has been reported.

Earthquake Activity

City Distance Mag. Time & Date
No recent earthquake activity has been reported nearby.
Minimum magnitude displayed is 2.5.

Coastal Water Temperatures

Place Temperature
Seadrift, TX 87.1 °F
Rockport, TX 88.0 °F
USCG Freeport, TX 88.0 °F

Nearby Weather Stations